San Francisco, California
Traffic Map
Current Weather Conditions
San Francisco, California
Few Clouds
Few Clouds
46°
Feels Like: 44°
Wind Chill: 44° Ceiling: Unl
Heat Index: 46° Visibility: 10mi
Dew Point: 36° Wind: 5mph
Humidity: 68% Direction: 210° (SSW)
Pressure: 30.42in Gusts: 0mph
Raw Report DataKSFO 241556Z 21004KT 10SM FEW200 08/02 A3042 RMK AO2 SLP301 T00780022 $
Traffic Incident Summary
Active as of:
Severity:
Category:
InformationThere was an issue retrieving the traffic information for this location. Please try a different location or try again shortly.
Advertisements